sensor_id;sensor_type;location;lat;lon;timestamp;P1;durP1;ratioP1;P2;durP2;ratioP2
41309;SDS011;27057;51.438;-0.010;2023-07-20T00:01:00;3.15;;;2.22;;
41309;SDS011;27057;51.438;-0.010;2023-07-20T00:03:28;16.80;;;2.80;;
41309;SDS011;27057;51.438;-0.010;2023-07-20T00:05:55;7.60;;;2.63;;
41309;SDS011;27057;51.438;-0.010;2023-07-20T00:08:22;4.75;;;2.90;;
41309;SDS011;27057;51.438;-0.010;2023-07-20T00:10:50;5.65;;;2.72;;
41309;SDS011;27057;51.438;-0.010;2023-07-20T00:13:17;3.90;;;2.70;;
41309;SDS011;27057;51.438;-0.010;2023-07-20T00:15:46;3.53;;;2.50;;
41309;SDS011;27057;51.438;-0.010;2023-07-20T00:18:13;3.08;;;2.60;;
41309;SDS011;27057;51.438;-0.010;2023-07-20T00:20:41;3.45;;;1.90;;
41309;SDS011;27057;51.438;-0.010;2023-07-20T00:23:08;4.38;;;2.30;;
41309;SDS011;27057;51.438;-0.010;2023-07-20T00:25:35;3.22;;;1.95;;
41309;SDS011;27057;51.438;-0.010;2023-07-20T00:28:03;6.07;;;2.22;;
41309;SDS011;27057;51.438;-0.010;2023-07-20T00:30:30;3.28;;;2.08;;
41309;SDS011;27057;51.438;-0.010;2023-07-20T00:32:58;3.35;;;2.67;;
41309;SDS011;27057;51.438;-0.010;2023-07-20T00:35:26;2.80;;;2.00;;
41309;SDS011;27057;51.438;-0.010;2023-07-20T00:37:53;3.78;;;2.30;;
41309;SDS011;27057;51.438;-0.010;2023-07-20T00:40:20;2.55;;;1.90;;
41309;SDS011;27057;51.438;-0.010;2023-07-20T00:42:49;8.77;;;2.78;;
41309;SDS011;27057;51.438;-0.010;2023-07-20T00:45:22;3.00;;;2.10;;
41309;SDS011;27057;51.438;-0.010;2023-07-20T00:47:51;7.25;;;2.20;;
41309;SDS011;27057;51.438;-0.010;2023-07-20T00:50:19;3.38;;;2.28;;
41309;SDS011;27057;51.438;-0.010;2023-07-20T00:52:47;3.60;;;2.20;;
41309;SDS011;27057;51.438;-0.010;2023-07-20T00:55:18;3.63;;;1.98;;
41309;SDS011;27057;51.438;-0.010;2023-07-20T00:57:46;3.75;;;2.28;;
41309;SDS011;27057;51.438;-0.010;2023-07-20T01:00:13;4.75;;;2.65;;
41309;SDS011;27057;51.438;-0.010;2023-07-20T01:02:43;2.47;;;2.10;;
41309;SDS011;27057;51.438;-0.010;2023-07-20T01:05:11;3.78;;;2.45;;
41309;SDS011;27057;51.438;-0.010;2023-07-20T01:07:41;4.68;;;2.38;;
41309;SDS011;27057;51.438;-0.010;2023-07-20T01:10:20;3.55;;;1.98;;
41309;SDS011;27057;51.438;-0.010;2023-07-20T01:12:51;3.45;;;1.95;;
41309;SDS011;27057;51.438;-0.010;2023-07-20T01:15:19;4.50;;;2.10;;
41309;SDS011;27057;51.438;-0.010;2023-07-20T01:17:47;4.13;;;2.00;;
41309;SDS011;27057;51.438;-0.010;2023-07-20T01:20:15;8.48;;;1.73;;
41309;SDS011;27057;51.438;-0.010;2023-07-20T01:23:27;4.07;;;2.08;;
41309;SDS011;27057;51.438;-0.010;2023-07-20T01:26:02;4.82;;;1.92;;
41309;SDS011;27057;51.438;-0.010;2023-07-20T01:31:24;6.75;;;2.20;;
41309;SDS011;27057;51.438;-0.010;2023-07-20T01:33:58;3.20;;;2.10;;
41309;SDS011;27057;51.438;-0.010;2023-07-20T01:36:28;3.83;;;1.77;;
41309;SDS011;27057;51.438;-0.010;2023-07-20T01:38:58;5.70;;;1.85;;
41309;SDS011;27057;51.438;-0.010;2023-07-20T01:41:26;3.50;;;1.88;;
41309;SDS011;27057;51.438;-0.010;2023-07-20T01:43:57;3.30;;;2.13;;
41309;SDS011;27057;51.438;-0.010;2023-07-20T01:46:26;8.27;;;2.00;;
41309;SDS011;27057;51.438;-0.010;2023-07-20T01:48:54;4.32;;;2.20;;
41309;SDS011;27057;51.438;-0.010;2023-07-20T01:51:22;3.25;;;1.50;;
41309;SDS011;27057;51.438;-0.010;2023-07-20T01:53:49;13.43;;;3.08;;
41309;SDS011;27057;51.438;-0.010;2023-07-20T01:56:16;7.20;;;2.15;;
41309;SDS011;27057;51.438;-0.010;2023-07-20T01:58:44;4.22;;;2.22;;
41309;SDS011;27057;51.438;-0.010;2023-07-20T02:01:11;7.88;;;2.50;;
41309;SDS011;27057;51.438;-0.010;2023-07-20T02:03:38;11.20;;;2.20;;
41309;SDS011;27057;51.438;-0.010;2023-07-20T02:06:06;3.55;;;2.60;;
41309;SDS011;27057;51.438;-0.010;2023-07-20T02:08:33;6.55;;;2.47;;
41309;SDS011;27057;51.438;-0.010;2023-07-20T02:11:01;5.38;;;2.53;;
41309;SDS011;27057;51.438;-0.010;2023-07-20T02:13:30;7.95;;;2.10;;
41309;SDS011;27057;51.438;-0.010;2023-07-20T02:15:57;4.82;;;2.58;;
41309;SDS011;27057;51.438;-0.010;2023-07-20T02:18:24;3.65;;;2.03;;
41309;SDS011;27057;51.438;-0.010;2023-07-20T02:20:52;5.75;;;2.50;;
41309;SDS011;27057;51.438;-0.010;2023-07-20T02:23:21;7.38;;;2.53;;
41309;SDS011;27057;51.438;-0.010;2023-07-20T02:25:48;4.63;;;2.60;;
41309;SDS011;27057;51.438;-0.010;2023-07-20T02:28:15;4.65;;;2.28;;
41309;SDS011;27057;51.438;-0.010;2023-07-20T02:30:43;6.13;;;2.78;;
41309;SDS011;27057;51.438;-0.010;2023-07-20T02:33:10;5.18;;;2.30;;
41309;SDS011;27057;51.438;-0.010;2023-07-20T02:35:37;7.93;;;2.65;;
41309;SDS011;27057;51.438;-0.010;2023-07-20T02:38:05;3.65;;;2.15;;
41309;SDS011;27057;51.438;-0.010;2023-07-20T02:40:33;4.28;;;2.55;;
41309;SDS011;27057;51.438;-0.010;2023-07-20T02:43:01;6.07;;;2.47;;
41309;SDS011;27057;51.438;-0.010;2023-07-20T02:45:28;4.38;;;2.50;;
41309;SDS011;27057;51.438;-0.010;2023-07-20T02:47:57;11.27;;;2.83;;
41309;SDS011;27057;51.438;-0.010;2023-07-20T02:50:24;5.50;;;2.85;;
41309;SDS011;27057;51.438;-0.010;2023-07-20T02:52:51;3.58;;;2.80;;
41309;SDS011;27057;51.438;-0.010;2023-07-20T02:55:19;5.80;;;2.63;;
41309;SDS011;27057;51.438;-0.010;2023-07-20T02:57:46;3.90;;;2.10;;
41309;SDS011;27057;51.438;-0.010;2023-07-20T03:00:14;3.72;;;2.10;;
41309;SDS011;27057;51.438;-0.010;2023-07-20T03:02:43;3.28;;;2.30;;
41309;SDS011;27057;51.438;-0.010;2023-07-20T03:05:10;5.95;;;2.45;;
41309;SDS011;27057;51.438;-0.010;2023-07-20T03:07:37;4.00;;;2.13;;
41309;SDS011;27057;51.438;-0.010;2023-07-20T03:10:05;5.18;;;1.88;;
41309;SDS011;27057;51.438;-0.010;2023-07-20T03:12:36;4.38;;;2.50;;
41309;SDS011;27057;51.438;-0.010;2023-07-20T03:15:04;6.18;;;2.10;;
41309;SDS011;27057;51.438;-0.010;2023-07-20T03:17:32;3.25;;;1.95;;
41309;SDS011;27057;51.438;-0.010;2023-07-20T03:20:00;2.80;;;2.33;;
41309;SDS011;27057;51.438;-0.010;2023-07-20T03:22:28;4.25;;;2.00;;
41309;SDS011;27057;51.438;-0.010;2023-07-20T03:24:56;6.72;;;2.22;;
41309;SDS011;27057;51.438;-0.010;2023-07-20T03:27:23;3.58;;;2.30;;
41309;SDS011;27057;51.438;-0.010;2023-07-20T03:29:51;5.25;;;2.15;;
41309;SDS011;27057;51.438;-0.010;2023-07-20T03:32:18;4.68;;;2.20;;
41309;SDS011;27057;51.438;-0.010;2023-07-20T03:34:46;7.78;;;1.90;;
41309;SDS011;27057;51.438;-0.010;2023-07-20T03:37:14;5.15;;;1.77;;
41309;SDS011;27057;51.438;-0.010;2023-07-20T03:39:41;6.40;;;1.90;;
41309;SDS011;27057;51.438;-0.010;2023-07-20T03:42:09;6.32;;;1.63;;
41309;SDS011;27057;51.438;-0.010;2023-07-20T03:44:36;3.95;;;1.77;;
41309;SDS011;27057;51.438;-0.010;2023-07-20T03:47:04;3.40;;;2.00;;
41309;SDS011;27057;51.438;-0.010;2023-07-20T03:49:32;4.30;;;1.92;;
41309;SDS011;27057;51.438;-0.010;2023-07-20T03:51:59;5.22;;;1.95;;
41309;SDS011;27057;51.438;-0.010;2023-07-20T03:54:27;3.75;;;1.63;;
41309;SDS011;27057;51.438;-0.010;2023-07-20T03:56:54;6.65;;;2.10;;
41309;SDS011;27057;51.438;-0.010;2023-07-20T03:59:22;3.20;;;1.77;;
41309;SDS011;27057;51.438;-0.010;2023-07-20T04:01:49;3.00;;;1.90;;
41309;SDS011;27057;51.438;-0.010;2023-07-20T04:04:18;3.30;;;1.67;;
41309;SDS011;27057;51.438;-0.010;2023-07-20T04:06:45;3.70;;;1.95;;
41309;SDS011;27057;51.438;-0.010;2023-07-20T04:09:13;3.92;;;1.98;;
41309;SDS011;27057;51.438;-0.010;2023-07-20T04:11:41;5.38;;;1.60;;
41309;SDS011;27057;51.438;-0.010;2023-07-20T04:14:08;4.95;;;2.10;;
41309;SDS011;27057;51.438;-0.010;2023-07-20T04:16:35;3.45;;;2.47;;
41309;SDS011;27057;51.438;-0.010;2023-07-20T04:19:04;3.17;;;1.95;;
41309;SDS011;27057;51.438;-0.010;2023-07-20T04:21:31;5.93;;;2.10;;
41309;SDS011;27057;51.438;-0.010;2023-07-20T04:23:59;5.15;;;2.10;;
41309;SDS011;27057;51.438;-0.010;2023-07-20T04:26:26;3.15;;;2.13;;
41309;SDS011;27057;51.438;-0.010;2023-07-20T04:28:54;5.65;;;2.58;;
41309;SDS011;27057;51.438;-0.010;2023-07-20T04:31:33;6.20;;;1.92;;
41309;SDS011;27057;51.438;-0.010;2023-07-20T04:34:02;12.70;;;2.10;;
41309;SDS011;27057;51.438;-0.010;2023-07-20T04:36:32;3.88;;;1.73;;
41309;SDS011;27057;51.438;-0.010;2023-07-20T04:38:59;3.50;;;2.05;;
41309;SDS011;27057;51.438;-0.010;2023-07-20T04:41:33;5.35;;;2.38;;
41309;SDS011;27057;51.438;-0.010;2023-07-20T04:44:01;5.05;;;2.30;;
41309;SDS011;27057;51.438;-0.010;2023-07-20T04:46:30;4.57;;;2.35;;
41309;SDS011;27057;51.438;-0.010;2023-07-20T04:49:00;4.25;;;2.40;;
41309;SDS011;27057;51.438;-0.010;2023-07-20T04:51:31;4.63;;;2.17;;
41309;SDS011;27057;51.438;-0.010;2023-07-20T04:53:58;4.18;;;2.50;;
41309;SDS011;27057;51.438;-0.010;2023-07-20T04:56:30;6.82;;;2.55;;
41309;SDS011;27057;51.438;-0.010;2023-07-20T04:58:57;10.10;;;1.92;;
41309;SDS011;27057;51.438;-0.010;2023-07-20T05:01:25;5.15;;;2.28;;
41309;SDS011;27057;51.438;-0.010;2023-07-20T05:03:56;6.03;;;2.17;;
41309;SDS011;27057;51.438;-0.010;2023-07-20T05:06:24;4.82;;;2.40;;
41309;SDS011;27057;51.438;-0.010;2023-07-20T05:08:52;7.55;;;2.75;;
41309;SDS011;27057;51.438;-0.010;2023-07-20T05:11:20;7.95;;;2.17;;
41309;SDS011;27057;51.438;-0.010;2023-07-20T05:13:47;3.75;;;2.47;;
41309;SDS011;27057;51.438;-0.010;2023-07-20T05:16:15;4.57;;;2.30;;
41309;SDS011;27057;51.438;-0.010;2023-07-20T05:18:44;6.53;;;2.40;;
41309;SDS011;27057;51.438;-0.010;2023-07-20T05:21:11;3.55;;;2.58;;
41309;SDS011;27057;51.438;-0.010;2023-07-20T05:23:38;7.38;;;2.88;;
41309;SDS011;27057;51.438;-0.010;2023-07-20T05:26:06;5.05;;;2.53;;
41309;SDS011;27057;51.438;-0.010;2023-07-20T05:28:34;6.07;;;2.38;;
41309;SDS011;27057;51.438;-0.010;2023-07-20T05:31:04;5.97;;;2.65;;
41309;SDS011;27057;51.438;-0.010;2023-07-20T05:33:32;7.53;;;2.90;;
41309;SDS011;27057;51.438;-0.010;2023-07-20T05:35:59;4.05;;;2.28;;
41309;SDS011;27057;51.438;-0.010;2023-07-20T05:38:26;6.68;;;2.40;;
41309;SDS011;27057;51.438;-0.010;2023-07-20T05:40:58;4.20;;;2.28;;
41309;SDS011;27057;51.438;-0.010;2023-07-20T05:43:27;7.07;;;2.47;;
41309;SDS011;27057;51.438;-0.010;2023-07-20T05:45:55;6.60;;;2.58;;
41309;SDS011;27057;51.438;-0.010;2023-07-20T05:48:23;6.63;;;2.30;;
41309;SDS011;27057;51.438;-0.010;2023-07-20T05:50:50;3.75;;;1.88;;
41309;SDS011;27057;51.438;-0.010;2023-07-20T05:53:18;3.85;;;2.42;;
41309;SDS011;27057;51.438;-0.010;2023-07-20T05:55:51;11.43;;;2.45;;
41309;SDS011;27057;51.438;-0.010;2023-07-20T05:58:19;4.63;;;2.75;;
41309;SDS011;27057;51.438;-0.010;2023-07-20T06:00:49;11.35;;;4.45;;
41309;SDS011;27057;51.438;-0.010;2023-07-20T06:03:17;14.85;;;3.03;;
41309;SDS011;27057;51.438;-0.010;2023-07-20T06:05:45;6.20;;;2.47;;
41309;SDS011;27057;51.438;-0.010;2023-07-20T06:08:12;6.18;;;2.95;;
41309;SDS011;27057;51.438;-0.010;2023-07-20T06:10:40;3.92;;;2.33;;
41309;SDS011;27057;51.438;-0.010;2023-07-20T06:13:11;5.55;;;2.45;;
41309;SDS011;27057;51.438;-0.010;2023-07-20T06:15:38;7.10;;;2.75;;
41309;SDS011;27057;51.438;-0.010;2023-07-20T06:18:07;6.65;;;2.95;;
41309;SDS011;27057;51.438;-0.010;2023-07-20T06:20:35;11.90;;;2.63;;
41309;SDS011;27057;51.438;-0.010;2023-07-20T06:23:02;4.43;;;2.20;;
41309;SDS011;27057;51.438;-0.010;2023-07-20T06:25:30;2.95;;;2.17;;
41309;SDS011;27057;51.438;-0.010;2023-07-20T06:27:57;10.43;;;2.83;;
41309;SDS011;27057;51.438;-0.010;2023-07-20T06:30:25;9.27;;;2.95;;
41309;SDS011;27057;51.438;-0.010;2023-07-20T06:32:52;7.70;;;2.80;;
41309;SDS011;27057;51.438;-0.010;2023-07-20T06:35:23;7.70;;;2.97;;
41309;SDS011;27057;51.438;-0.010;2023-07-20T06:37:50;4.85;;;2.60;;
41309;SDS011;27057;51.438;-0.010;2023-07-20T06:40:18;7.70;;;2.85;;
41309;SDS011;27057;51.438;-0.010;2023-07-20T06:42:49;7.55;;;3.03;;
41309;SDS011;27057;51.438;-0.010;2023-07-20T06:45:21;8.40;;;4.43;;
41309;SDS011;27057;51.438;-0.010;2023-07-20T06:47:48;6.40;;;2.63;;
41309;SDS011;27057;51.438;-0.010;2023-07-20T06:50:16;14.07;;;2.85;;
41309;SDS011;27057;51.438;-0.010;2023-07-20T06:52:44;8.75;;;2.85;;
41309;SDS011;27057;51.438;-0.010;2023-07-20T06:55:14;5.60;;;2.83;;
41309;SDS011;27057;51.438;-0.010;2023-07-20T06:57:48;6.05;;;2.63;;
41309;SDS011;27057;51.438;-0.010;2023-07-20T07:00:16;7.90;;;2.65;;
41309;SDS011;27057;51.438;-0.010;2023-07-20T07:02:43;3.92;;;2.65;;
41309;SDS011;27057;51.438;-0.010;2023-07-20T07:05:14;7.10;;;2.88;;
41309;SDS011;27057;51.438;-0.010;2023-07-20T07:07:46;6.38;;;4.75;;
41309;SDS011;27057;51.438;-0.010;2023-07-20T07:10:13;11.50;;;3.70;;
41309;SDS011;27057;51.438;-0.010;2023-07-20T07:12:41;12.95;;;3.30;;
41309;SDS011;27057;51.438;-0.010;2023-07-20T07:15:08;6.68;;;2.90;;
41309;SDS011;27057;51.438;-0.010;2023-07-20T07:17:37;5.40;;;2.65;;
41309;SDS011;27057;51.438;-0.010;2023-07-20T07:20:05;8.23;;;2.92;;
41309;SDS011;27057;51.438;-0.010;2023-07-20T07:22:37;9.00;;;4.15;;
41309;SDS011;27057;51.438;-0.010;2023-07-20T07:25:05;9.55;;;3.50;;
41309;SDS011;27057;51.438;-0.010;2023-07-20T07:27:34;8.90;;;3.40;;
41309;SDS011;27057;51.438;-0.010;2023-07-20T07:30:05;7.15;;;3.17;;
41309;SDS011;27057;51.438;-0.010;2023-07-20T07:32:33;7.15;;;2.95;;
41309;SDS011;27057;51.438;-0.010;2023-07-20T07:35:00;8.48;;;3.72;;
41309;SDS011;27057;51.438;-0.010;2023-07-20T07:37:27;21.77;;;7.82;;
41309;SDS011;27057;51.438;-0.010;2023-07-20T07:39:59;16.38;;;6.85;;
41309;SDS011;27057;51.438;-0.010;2023-07-20T07:42:26;10.70;;;4.30;;
41309;SDS011;27057;51.438;-0.010;2023-07-20T07:44:56;10.23;;;3.17;;
41309;SDS011;27057;51.438;-0.010;2023-07-20T07:47:23;13.93;;;3.05;;
41309;SDS011;27057;51.438;-0.010;2023-07-20T07:49:51;10.40;;;3.58;;
41309;SDS011;27057;51.438;-0.010;2023-07-20T07:52:18;13.63;;;3.30;;
41309;SDS011;27057;51.438;-0.010;2023-07-20T07:54:45;8.38;;;3.65;;
41309;SDS011;27057;51.438;-0.010;2023-07-20T07:57:12;15.82;;;4.60;;
41309;SDS011;27057;51.438;-0.010;2023-07-20T07:59:40;6.40;;;3.70;;
41309;SDS011;27057;51.438;-0.010;2023-07-20T08:02:08;5.32;;;3.08;;
41309;SDS011;27057;51.438;-0.010;2023-07-20T08:04:35;21.45;;;6.57;;
41309;SDS011;27057;51.438;-0.010;2023-07-20T08:07:03;11.98;;;3.55;;
41309;SDS011;27057;51.438;-0.010;2023-07-20T08:09:31;9.10;;;3.40;;
41309;SDS011;27057;51.438;-0.010;2023-07-20T08:11:58;7.50;;;3.10;;
41309;SDS011;27057;51.438;-0.010;2023-07-20T08:14:26;5.10;;;3.08;;
41309;SDS011;27057;51.438;-0.010;2023-07-20T08:16:53;14.48;;;4.47;;
41309;SDS011;27057;51.438;-0.010;2023-07-20T08:19:21;8.93;;;3.42;;
41309;SDS011;27057;51.438;-0.010;2023-07-20T08:21:48;10.30;;;3.65;;
41309;SDS011;27057;51.438;-0.010;2023-07-20T08:24:16;8.68;;;2.97;;
41309;SDS011;27057;51.438;-0.010;2023-07-20T08:26:43;8.13;;;3.83;;
41309;SDS011;27057;51.438;-0.010;2023-07-20T08:29:10;9.52;;;3.63;;
41309;SDS011;27057;51.438;-0.010;2023-07-20T08:31:38;5.40;;;3.15;;
41309;SDS011;27057;51.438;-0.010;2023-07-20T08:34:05;12.90;;;3.35;;
41309;SDS011;27057;51.438;-0.010;2023-07-20T08:36:50;5.82;;;2.65;;
41309;SDS011;27057;51.438;-0.010;2023-07-20T08:39:18;11.68;;;3.20;;
41309;SDS011;27057;51.438;-0.010;2023-07-20T08:41:46;5.32;;;3.53;;
41309;SDS011;27057;51.438;-0.010;2023-07-20T08:44:13;9.45;;;3.40;;
41309;SDS011;27057;51.438;-0.010;2023-07-20T08:46:41;6.82;;;2.40;;
41309;SDS011;27057;51.438;-0.010;2023-07-20T08:49:11;7.80;;;2.83;;
41309;SDS011;27057;51.438;-0.010;2023-07-20T08:51:38;6.28;;;3.10;;
41309;SDS011;27057;51.438;-0.010;2023-07-20T08:54:08;6.30;;;3.13;;
41309;SDS011;27057;51.438;-0.010;2023-07-20T08:56:37;10.95;;;3.83;;
41309;SDS011;27057;51.438;-0.010;2023-07-20T08:59:07;6.18;;;2.92;;
41309;SDS011;27057;51.438;-0.010;2023-07-20T09:01:36;4.97;;;2.75;;
41309;SDS011;27057;51.438;-0.010;2023-07-20T09:04:06;6.43;;;2.47;;
41309;SDS011;27057;51.438;-0.010;2023-07-20T09:06:34;7.63;;;2.78;;
41309;SDS011;27057;51.438;-0.010;2023-07-20T09:09:02;8.13;;;2.70;;
41309;SDS011;27057;51.438;-0.010;2023-07-20T09:11:30;4.10;;;2.40;;
41309;SDS011;27057;51.438;-0.010;2023-07-20T09:14:04;9.50;;;2.20;;
41309;SDS011;27057;51.438;-0.010;2023-07-20T09:16:46;5.78;;;2.67;;
41309;SDS011;27057;51.438;-0.010;2023-07-20T09:19:16;9.10;;;3.22;;
41309;SDS011;27057;51.438;-0.010;2023-07-20T09:21:44;7.88;;;3.28;;
41309;SDS011;27057;51.438;-0.010;2023-07-20T09:24:13;10.63;;;3.60;;
41309;SDS011;27057;51.438;-0.010;2023-07-20T09:26:46;6.88;;;2.83;;
41309;SDS011;27057;51.438;-0.010;2023-07-20T09:29:18;8.40;;;3.17;;
41309;SDS011;27057;51.438;-0.010;2023-07-20T09:31:58;9.18;;;2.90;;
41309;SDS011;27057;51.438;-0.010;2023-07-20T09:34:30;5.25;;;2.55;;
41309;SDS011;27057;51.438;-0.010;2023-07-20T09:37:04;15.10;;;3.38;;
41309;SDS011;27057;51.438;-0.010;2023-07-20T09:39:32;5.47;;;2.50;;
41309;SDS011;27057;51.438;-0.010;2023-07-20T09:42:28;11.57;;;4.40;;
41309;SDS011;27057;51.438;-0.010;2023-07-20T09:44:59;7.13;;;2.58;;
41309;SDS011;27057;51.438;-0.010;2023-07-20T09:47:26;7.43;;;2.40;;
41309;SDS011;27057;51.438;-0.010;2023-07-20T09:49:58;1.98;;;1.30;;
41309;SDS011;27057;51.438;-0.010;2023-07-20T09:52:30;8.52;;;1.48;;
41309;SDS011;27057;51.438;-0.010;2023-07-20T09:55:00;2.20;;;1.15;;
41309;SDS011;27057;51.438;-0.010;2023-07-20T09:57:29;4.65;;;1.83;;
41309;SDS011;27057;51.438;-0.010;2023-07-20T09:59:58;6.63;;;1.60;;
41309;SDS011;27057;51.438;-0.010;2023-07-20T10:02:46;2.15;;;1.10;;
41309;SDS011;27057;51.438;-0.010;2023-07-20T10:05:15;9.27;;;1.40;;
41309;SDS011;27057;51.438;-0.010;2023-07-20T10:07:44;3.13;;;1.45;;
41309;SDS011;27057;51.438;-0.010;2023-07-20T10:10:15;6.32;;;1.50;;
41309;SDS011;27057;51.438;-0.010;2023-07-20T10:12:44;4.72;;;1.90;;
41309;SDS011;27057;51.438;-0.010;2023-07-20T10:15:18;4.18;;;1.92;;
41309;SDS011;27057;51.438;-0.010;2023-07-20T10:17:54;5.40;;;1.48;;
41309;SDS011;27057;51.438;-0.010;2023-07-20T10:20:39;6.53;;;1.30;;
41309;SDS011;27057;51.438;-0.010;2023-07-20T10:23:13;4.55;;;1.48;;
41309;SDS011;27057;51.438;-0.010;2023-07-20T10:25:41;5.43;;;1.40;;
41309;SDS011;27057;51.438;-0.010;2023-07-20T10:28:10;2.90;;;1.20;;
41309;SDS011;27057;51.438;-0.010;2023-07-20T10:30:38;3.60;;;1.42;;
41309;SDS011;27057;51.438;-0.010;2023-07-20T10:33:06;3.03;;;1.30;;
41309;SDS011;27057;51.438;-0.010;2023-07-20T10:41:19;6.57;;;1.20;;
41309;SDS011;27057;51.438;-0.010;2023-07-20T10:44:01;9.18;;;1.42;;
41309;SDS011;27057;51.438;-0.010;2023-07-20T10:46:44;3.78;;;1.20;;
41309;SDS011;27057;51.438;-0.010;2023-07-20T10:49:14;5.53;;;1.65;;
41309;SDS011;27057;51.438;-0.010;2023-07-20T10:51:48;4.45;;;1.40;;
41309;SDS011;27057;51.438;-0.010;2023-07-20T11:00:07;3.42;;;1.02;;
41309;SDS011;27057;51.438;-0.010;2023-07-20T11:02:47;1.65;;;1.35;;
41309;SDS011;27057;51.438;-0.010;2023-07-20T11:08:37;3.47;;;1.33;;
41309;SDS011;27057;51.438;-0.010;2023-07-20T11:11:20;6.32;;;1.60;;
41309;SDS011;27057;51.438;-0.010;2023-07-20T11:14:01;1.83;;;1.30;;
41309;SDS011;27057;51.438;-0.010;2023-07-20T11:16:43;6.07;;;1.10;;
41309;SDS011;27057;51.438;-0.010;2023-07-20T11:19:16;1.27;;;1.13;;
41309;SDS011;27057;51.438;-0.010;2023-07-20T11:21:49;1.42;;;1.10;;
41309;SDS011;27057;51.438;-0.010;2023-07-20T11:24:28;3.05;;;1.30;;
41309;SDS011;27057;51.438;-0.010;2023-07-20T11:26:56;22.83;;;2.17;;
41309;SDS011;27057;51.438;-0.010;2023-07-20T11:29:23;4.97;;;1.02;;
41309;SDS011;27057;51.438;-0.010;2023-07-20T11:31:58;3.92;;;1.63;;
41309;SDS011;27057;51.438;-0.010;2023-07-20T11:34:26;1.70;;;1.38;;
41309;SDS011;27057;51.438;-0.010;2023-07-20T11:36:54;3.08;;;1.55;;
41309;SDS011;27057;51.438;-0.010;2023-07-20T11:39:25;3.95;;;1.17;;
41309;SDS011;27057;51.438;-0.010;2023-07-20T11:41:53;3.15;;;1.45;;
41309;SDS011;27057;51.438;-0.010;2023-07-20T11:44:23;1.65;;;1.13;;
41309;SDS011;27057;51.438;-0.010;2023-07-20T11:47:00;3.55;;;1.80;;
41309;SDS011;27057;51.438;-0.010;2023-07-20T11:49:34;6.25;;;1.67;;
41309;SDS011;27057;51.438;-0.010;2023-07-20T11:52:02;5.32;;;1.40;;
41309;SDS011;27057;51.438;-0.010;2023-07-20T11:54:37;4.60;;;1.33;;
41309;SDS011;27057;51.438;-0.010;2023-07-20T11:57:06;5.95;;;1.23;;
41309;SDS011;27057;51.438;-0.010;2023-07-20T11:59:34;4.03;;;1.55;;
41309;SDS011;27057;51.438;-0.010;2023-07-20T12:02:02;6.22;;;1.50;;
41309;SDS011;27057;51.438;-0.010;2023-07-20T12:04:31;2.33;;;1.27;;
41309;SDS011;27057;51.438;-0.010;2023-07-20T12:06:59;2.00;;;1.52;;
41309;SDS011;27057;51.438;-0.010;2023-07-20T12:09:27;3.20;;;1.60;;
41309;SDS011;27057;51.438;-0.010;2023-07-20T12:12:14;3.92;;;1.40;;
41309;SDS011;27057;51.438;-0.010;2023-07-20T12:14:43;2.15;;;1.17;;
41309;SDS011;27057;51.438;-0.010;2023-07-20T12:17:10;12.93;;;1.73;;
41309;SDS011;27057;51.438;-0.010;2023-07-20T12:19:38;3.22;;;1.33;;
41309;SDS011;27057;51.438;-0.010;2023-07-20T12:22:07;2.38;;;1.55;;
41309;SDS011;27057;51.438;-0.010;2023-07-20T12:24:35;2.72;;;1.50;;
41309;SDS011;27057;51.438;-0.010;2023-07-20T12:27:02;6.53;;;1.58;;
41309;SDS011;27057;51.438;-0.010;2023-07-20T12:29:30;5.38;;;1.52;;
41309;SDS011;27057;51.438;-0.010;2023-07-20T12:32:02;7.97;;;2.05;;
41309;SDS011;27057;51.438;-0.010;2023-07-20T12:34:30;3.55;;;1.80;;
41309;SDS011;27057;51.438;-0.010;2023-07-20T12:36:57;2.72;;;1.33;;
41309;SDS011;27057;51.438;-0.010;2023-07-20T12:39:25;5.22;;;1.42;;
41309;SDS011;27057;51.438;-0.010;2023-07-20T12:41:53;3.28;;;1.70;;
41309;SDS011;27057;51.438;-0.010;2023-07-20T12:44:24;3.45;;;1.50;;
41309;SDS011;27057;51.438;-0.010;2023-07-20T12:46:51;3.67;;;1.88;;
41309;SDS011;27057;51.438;-0.010;2023-07-20T12:49:19;3.17;;;1.50;;
41309;SDS011;27057;51.438;-0.010;2023-07-20T12:51:46;2.40;;;1.45;;
41309;SDS011;27057;51.438;-0.010;2023-07-20T12:54:13;2.00;;;1.23;;
41309;SDS011;27057;51.438;-0.010;2023-07-20T12:56:41;4.35;;;1.48;;
41309;SDS011;27057;51.438;-0.010;2023-07-20T12:59:11;2.63;;;1.65;;
41309;SDS011;27057;51.438;-0.010;2023-07-20T13:01:38;2.50;;;1.38;;
41309;SDS011;27057;51.438;-0.010;2023-07-20T13:04:08;2.83;;;1.60;;
41309;SDS011;27057;51.438;-0.010;2023-07-20T13:06:38;2.65;;;2.08;;
41309;SDS011;27057;51.438;-0.010;2023-07-20T13:09:06;7.18;;;1.88;;
41309;SDS011;27057;51.438;-0.010;2023-07-20T13:11:33;3.38;;;1.60;;
41309;SDS011;27057;51.438;-0.010;2023-07-20T13:14:00;3.80;;;1.77;;
41309;SDS011;27057;51.438;-0.010;2023-07-20T13:16:28;6.68;;;1.77;;
41309;SDS011;27057;51.438;-0.010;2023-07-20T13:18:55;3.50;;;1.38;;
41309;SDS011;27057;51.438;-0.010;2023-07-20T13:21:22;3.17;;;1.63;;
41309;SDS011;27057;51.438;-0.010;2023-07-20T13:23:52;4.05;;;1.27;;
41309;SDS011;27057;51.438;-0.010;2023-07-20T13:26:19;3.08;;;1.30;;
41309;SDS011;27057;51.438;-0.010;2023-07-20T13:28:47;4.30;;;1.50;;
41309;SDS011;27057;51.438;-0.010;2023-07-20T13:31:15;2.40;;;1.38;;
41309;SDS011;27057;51.438;-0.010;2023-07-20T13:33:43;5.07;;;1.75;;
41309;SDS011;27057;51.438;-0.010;2023-07-20T13:36:21;2.55;;;1.23;;
41309;SDS011;27057;51.438;-0.010;2023-07-20T13:38:49;1.27;;;1.10;;
41309;SDS011;27057;51.438;-0.010;2023-07-20T13:41:17;3.40;;;1.58;;
41309;SDS011;27057;51.438;-0.010;2023-07-20T13:43:45;3.42;;;1.33;;
41309;SDS011;27057;51.438;-0.010;2023-07-20T13:46:12;5.93;;;1.48;;
41309;SDS011;27057;51.438;-0.010;2023-07-20T13:48:42;5.93;;;1.70;;
41309;SDS011;27057;51.438;-0.010;2023-07-20T13:51:10;4.80;;;1.75;;
41309;SDS011;27057;51.438;-0.010;2023-07-20T13:53:37;3.65;;;1.60;;
41309;SDS011;27057;51.438;-0.010;2023-07-20T13:56:07;3.08;;;1.20;;
41309;SDS011;27057;51.438;-0.010;2023-07-20T13:58:38;3.20;;;1.50;;
41309;SDS011;27057;51.438;-0.010;2023-07-20T14:01:06;7.10;;;1.55;;
41309;SDS011;27057;51.438;-0.010;2023-07-20T14:03:34;3.00;;;1.38;;
41309;SDS011;27057;51.438;-0.010;2023-07-20T14:06:03;5.15;;;1.30;;
41309;SDS011;27057;51.438;-0.010;2023-07-20T14:08:34;3.25;;;1.40;;
41309;SDS011;27057;51.438;-0.010;2023-07-20T14:11:02;2.80;;;1.50;;
41309;SDS011;27057;51.438;-0.010;2023-07-20T14:13:32;2.40;;;1.20;;
41309;SDS011;27057;51.438;-0.010;2023-07-20T14:16:13;4.85;;;1.45;;
41309;SDS011;27057;51.438;-0.010;2023-07-20T14:18:40;4.13;;;1.52;;
41309;SDS011;27057;51.438;-0.010;2023-07-20T14:21:08;7.75;;;1.77;;
41309;SDS011;27057;51.438;-0.010;2023-07-20T14:23:35;2.85;;;2.13;;
41309;SDS011;27057;51.438;-0.010;2023-07-20T14:26:03;2.00;;;1.40;;
41309;SDS011;27057;51.438;-0.010;2023-07-20T14:28:36;4.97;;;1.58;;
41309;SDS011;27057;51.438;-0.010;2023-07-20T14:31:04;2.03;;;1.45;;
41309;SDS011;27057;51.438;-0.010;2023-07-20T14:33:32;6.72;;;2.03;;
41309;SDS011;27057;51.438;-0.010;2023-07-20T14:36:02;4.25;;;2.13;;
41309;SDS011;27057;51.438;-0.010;2023-07-20T14:38:31;5.00;;;2.20;;
41309;SDS011;27057;51.438;-0.010;2023-07-20T14:41:00;5.00;;;1.63;;
41309;SDS011;27057;51.438;-0.010;2023-07-20T14:43:28;6.65;;;1.83;;
41309;SDS011;27057;51.438;-0.010;2023-07-20T14:45:56;4.18;;;1.90;;
41309;SDS011;27057;51.438;-0.010;2023-07-20T14:48:23;6.05;;;1.77;;
41309;SDS011;27057;51.438;-0.010;2023-07-20T14:50:51;3.72;;;1.42;;
41309;SDS011;27057;51.438;-0.010;2023-07-20T14:53:30;1.42;;;1.30;;
41309;SDS011;27057;51.438;-0.010;2023-07-20T14:56:00;3.53;;;1.45;;
41309;SDS011;27057;51.438;-0.010;2023-07-20T14:58:29;4.40;;;1.50;;
41309;SDS011;27057;51.438;-0.010;2023-07-20T15:01:00;2.25;;;1.38;;
41309;SDS011;27057;51.438;-0.010;2023-07-20T15:03:27;7.22;;;1.30;;